createdAt,value
2022-11-30T00:00:35.082Z,4.40
2022-11-30T00:05:37.264Z,4.88
2022-11-30T00:10:40.332Z,4.55
2022-11-30T00:15:42.545Z,4.80
2022-11-30T00:20:45.156Z,3.00
2022-11-30T00:25:47.437Z,3.00
2022-11-30T00:30:58.903Z,2.35
2022-11-30T00:36:04.377Z,2.58
2022-11-30T00:41:06.640Z,2.45
2022-11-30T00:46:09.704Z,2.95
2022-11-30T00:51:12.942Z,2.80
2022-11-30T00:56:15.138Z,2.60
2022-11-30T01:01:17.407Z,2.40
2022-11-30T01:06:19.660Z,2.63
2022-11-30T01:11:24.525Z,2.58
2022-11-30T01:16:29.270Z,2.60
2022-11-30T01:21:31.661Z,2.40
2022-11-30T01:26:33.908Z,2.30
2022-11-30T01:31:36.976Z,1.90
2022-11-30T01:36:39.259Z,2.10
2022-11-30T01:41:41.529Z,2.28
2022-11-30T01:47:09.990Z,2.13
2022-11-30T01:52:16.692Z,2.10
2022-11-30T01:57:40.723Z,1.77
2022-11-30T02:02:51.643Z,2.13
2022-11-30T02:07:54.701Z,2.00
2022-11-30T02:13:21.721Z,1.90
2022-11-30T02:18:38.588Z,2.20
2022-11-30T02:24:18.024Z,2.10
2022-11-30T02:29:48.888Z,1.80
2022-11-30T02:34:52.918Z,1.63
2022-11-30T02:39:55.404Z,1.55
2022-11-30T02:44:57.713Z,1.70
2022-11-30T02:50:15.511Z,1.65
2022-11-30T02:55:20.437Z,1.58
2022-11-30T03:00:22.784Z,2.17
2022-11-30T03:05:25.634Z,2.20
2022-11-30T03:10:27.839Z,1.85
2022-11-30T03:15:30.026Z,1.50
2022-11-30T03:20:32.579Z,1.30
2022-11-30T03:25:35.061Z,1.40
2022-11-30T03:30:37.262Z,1.58
2022-11-30T03:35:39.479Z,1.52
2022-11-30T03:40:41.825Z,1.63
2022-11-30T03:45:45.748Z,1.33
2022-11-30T03:50:50.121Z,1.60
2022-11-30T03:55:57.076Z,1.52
2022-11-30T04:01:05.996Z,1.23
2022-11-30T04:06:11.168Z,1.20
2022-11-30T04:11:14.380Z,1.30
2022-11-30T04:16:16.645Z,1.02
2022-11-30T04:21:19.312Z,1.13
2022-11-30T04:26:21.534Z,1.20
2022-11-30T04:31:23.770Z,1.20
2022-11-30T04:36:25.934Z,1.00
2022-11-30T04:41:28.241Z,0.98
2022-11-30T04:46:30.609Z,1.77
2022-11-30T04:51:32.801Z,2.00
2022-11-30T04:56:35.005Z,1.70
2022-11-30T05:01:37.275Z,3.85
2022-11-30T05:06:39.580Z,3.67
2022-11-30T05:11:41.864Z,6.95
2022-11-30T05:16:46.890Z,6.40
2022-11-30T05:21:49.110Z,6.43
2022-11-30T05:26:51.372Z,8.05
2022-11-30T05:31:53.692Z,7.03
2022-11-30T05:36:55.972Z,7.20
2022-11-30T05:41:58.302Z,3.60
2022-11-30T05:47:00.611Z,2.92
2022-11-30T05:52:02.837Z,2.20
2022-11-30T05:57:05.558Z,2.00
2022-11-30T06:02:07.785Z,1.45
2022-11-30T06:07:11.988Z,1.27
2022-11-30T06:12:14.163Z,2.15
2022-11-30T06:17:16.630Z,1.20
2022-11-30T06:22:18.933Z,1.52
2022-11-30T06:27:21.160Z,1.80
2022-11-30T06:32:23.458Z,4.45
2022-11-30T06:37:25.681Z,6.05
2022-11-30T06:42:30.296Z,5.57
2022-11-30T06:47:32.642Z,8.00
2022-11-30T06:52:35.180Z,11.25
2022-11-30T06:57:37.357Z,11.20
2022-11-30T07:02:39.644Z,5.60
2022-11-30T07:07:41.843Z,5.00
2022-11-30T07:12:45.374Z,5.72
2022-11-30T07:17:47.651Z,3.50
2022-11-30T07:22:49.878Z,2.88
2022-11-30T07:27:52.106Z,4.72
2022-11-30T07:32:54.272Z,7.50
2022-11-30T07:37:56.361Z,7.57
2022-11-30T07:42:58.443Z,7.55
2022-11-30T07:48:00.529Z,7.43
2022-11-30T07:53:02.725Z,5.30
2022-11-30T07:58:04.953Z,4.88
2022-11-30T08:03:07.150Z,4.20
2022-11-30T08:08:09.353Z,6.78
2022-11-30T08:13:11.499Z,6.85
2022-11-30T08:18:13.678Z,8.65
2022-11-30T08:23:15.837Z,8.85
2022-11-30T08:28:18.042Z,7.80
2022-11-30T08:33:20.410Z,6.55
2022-11-30T08:38:22.699Z,5.80
2022-11-30T08:43:24.910Z,4.13
2022-11-30T08:48:27.070Z,4.05
2022-11-30T08:53:29.487Z,4.90
2022-11-30T08:58:34.112Z,3.00
2022-11-30T09:03:36.877Z,2.75
2022-11-30T09:08:41.232Z,2.45
2022-11-30T09:13:44.453Z,2.42
2022-11-30T09:18:48.318Z,2.40
2022-11-30T09:23:51.649Z,2.03
2022-11-30T09:28:54.842Z,2.20
2022-11-30T09:33:58.506Z,1.83
2022-11-30T09:39:00.933Z,1.48
2022-11-30T09:44:27.820Z,1.63
2022-11-30T09:49:47.753Z,1.30
2022-11-30T09:54:50.230Z,1.60
2022-11-30T10:00:00.326Z,2.38
2022-11-30T10:05:02.600Z,2.08
2022-11-30T10:15:54.483Z,1.50
2022-11-30T10:21:19.436Z,1.48
2022-11-30T10:26:38.367Z,1.40
2022-11-30T10:31:43.301Z,1.63
2022-11-30T10:36:54.046Z,1.20
2022-11-30T10:42:21.493Z,1.15
2022-11-30T10:47:28.774Z,1.38
2022-11-30T10:52:41.887Z,1.30
2022-11-30T10:57:45.875Z,1.30
2022-11-30T11:02:49.640Z,1.30
2022-11-30T11:08:19.992Z,1.35
2022-11-30T11:13:39.865Z,1.25
2022-11-30T11:19:02.639Z,1.10
2022-11-30T11:24:10.740Z,1.00
2022-11-30T11:29:33.508Z,1.17
2022-11-30T11:34:36.992Z,1.10
2022-11-30T11:39:39.404Z,4.63
2022-11-30T11:44:41.789Z,5.78
2022-11-30T11:49:44.040Z,5.80
2022-11-30T11:55:17.434Z,5.82
2022-11-30T12:00:21.720Z,5.10
2022-11-30T12:05:47.540Z,5.40
2022-11-30T12:11:24.605Z,4.72
2022-11-30T12:16:48.328Z,4.95
2022-11-30T12:22:09.266Z,4.50
2022-11-30T12:27:53.519Z,4.68
2022-11-30T12:33:20.509Z,3.35
2022-11-30T12:39:20.399Z,2.83
2022-11-30T12:44:31.984Z,2.63
2022-11-30T12:50:03.163Z,2.30
2022-11-30T12:55:48.277Z,2.50
2022-11-30T13:01:09.560Z,3.10
2022-11-30T13:06:27.931Z,3.00
2022-11-30T13:11:38.263Z,2.53
2022-11-30T13:16:41.886Z,2.70
2022-11-30T13:21:55.077Z,2.90
2022-11-30T13:27:19.515Z,2.45
2022-11-30T13:32:56.077Z,3.17
2022-11-30T13:37:44.686Z,2.75
2022-11-30T13:42:51.536Z,3.92
2022-11-30T13:47:56.458Z,4.60
2022-11-30T13:52:58.876Z,4.68
2022-11-30T13:58:01.176Z,4.05
2022-11-30T14:03:18.235Z,3.63
2022-11-30T14:08:23.237Z,4.05
2022-11-30T14:13:30.744Z,4.28
2022-11-30T14:18:44.098Z,3.63
2022-11-30T14:24:12.761Z,5.75
2022-11-30T14:29:35.147Z,5.40
2022-11-30T14:34:46.129Z,5.65
2022-11-30T14:39:49.924Z,5.30
2022-11-30T14:44:53.454Z,7.07
2022-11-30T14:49:57.737Z,6.53
2022-11-30T14:55:38.549Z,5.18
2022-11-30T15:00:43.846Z,7.43
2022-11-30T15:05:47.016Z,5.63
2022-11-30T15:10:50.838Z,5.72
2022-11-30T15:15:55.749Z,5.70
2022-11-30T15:21:02.365Z,6.17
2022-11-30T15:26:25.873Z,5.75
2022-11-30T15:31:40.776Z,6.47
2022-11-30T15:36:43.933Z,6.80
2022-11-30T15:41:46.902Z,4.85
2022-11-30T15:46:57.408Z,6.82
2022-11-30T15:52:14.386Z,5.40
2022-11-30T15:57:17.465Z,6.07
2022-11-30T16:02:26.774Z,4.80
2022-11-30T16:07:38.528Z,5.70
2022-11-30T16:12:43.637Z,4.93
2022-11-30T16:17:46.173Z,4.80
2022-11-30T16:22:49.325Z,6.25
2022-11-30T16:27:52.720Z,6.05
2022-11-30T16:32:55.098Z,6.40
2022-11-30T16:37:57.519Z,7.10
2022-11-30T16:43:00.375Z,7.65
2022-11-30T16:48:02.760Z,8.55
2022-11-30T16:53:09.995Z,9.07
2022-11-30T16:58:13.651Z,9.43
2022-11-30T17:03:25.874Z,7.63
2022-11-30T17:08:28.103Z,6.85
2022-11-30T17:13:30.394Z,7.07
2022-11-30T17:18:32.719Z,7.05
2022-11-30T17:23:34.879Z,6.82
2022-11-30T17:28:37.155Z,7.07
2022-11-30T17:33:43.519Z,6.95
2022-11-30T17:38:49.189Z,4.97
2022-11-30T17:43:52.241Z,5.47
2022-11-30T17:48:55.953Z,4.60
2022-11-30T17:53:58.822Z,4.80
2022-11-30T17:59:01.161Z,5.53
2022-11-30T18:04:03.508Z,5.28
2022-11-30T18:09:05.872Z,4.55
2022-11-30T18:14:08.316Z,5.30
2022-11-30T18:19:15.097Z,5.63
2022-11-30T18:24:20.010Z,5.40
2022-11-30T18:29:26.522Z,4.60
2022-11-30T18:34:28.958Z,5.40
2022-11-30T18:39:31.715Z,5.45
2022-11-30T18:44:34.143Z,5.55
2022-11-30T18:49:36.446Z,6.22
2022-11-30T18:54:38.834Z,7.18
2022-11-30T18:59:41.191Z,6.90
2022-11-30T19:04:43.615Z,5.90
2022-11-30T19:09:46.262Z,5.38
2022-11-30T19:14:49.514Z,4.50
2022-11-30T19:19:51.930Z,4.18
2022-11-30T19:24:54.101Z,4.90
2022-11-30T19:29:56.362Z,4.05
2022-11-30T19:34:58.622Z,3.92
2022-11-30T19:40:00.938Z,4.07
2022-11-30T19:45:03.400Z,5.18
2022-11-30T19:50:06.150Z,5.68
2022-11-30T19:55:09.636Z,6.20
2022-11-30T20:00:13.019Z,8.82
2022-11-30T20:05:16.559Z,8.18
2022-11-30T20:10:18.932Z,7.47
2022-11-30T20:15:21.219Z,6.88
2022-11-30T20:20:24.762Z,6.30
2022-11-30T20:25:28.816Z,6.90
2022-11-30T20:30:31.136Z,8.32
2022-11-30T20:35:35.264Z,9.50
2022-11-30T20:40:39.895Z,9.55
2022-11-30T20:45:42.245Z,9.90
2022-11-30T20:51:01.063Z,12.07
2022-11-30T20:56:08.075Z,16.20
2022-11-30T21:01:11.737Z,13.82
2022-11-30T21:06:14.734Z,16.40
2022-11-30T21:11:20.298Z,15.00
2022-11-30T21:16:28.091Z,12.80
2022-11-30T21:21:33.961Z,12.27
2022-11-30T21:26:38.964Z,12.90
2022-11-30T21:31:42.140Z,14.30
2022-11-30T21:36:44.414Z,12.75
2022-11-30T21:41:46.649Z,12.15
2022-11-30T21:46:48.955Z,11.93
2022-11-30T21:51:51.119Z,10.25
2022-11-30T21:56:53.426Z,10.63
2022-11-30T22:01:55.634Z,12.85
2022-11-30T22:06:57.915Z,9.77
2022-11-30T22:12:00.193Z,8.85
2022-11-30T22:17:02.458Z,11.73
2022-11-30T22:22:04.745Z,11.02
2022-11-30T22:27:06.885Z,10.30
2022-11-30T22:32:09.020Z,10.65
2022-11-30T22:37:11.181Z,10.43
2022-11-30T22:42:13.328Z,15.15
2022-11-30T22:47:15.599Z,20.58
2022-11-30T22:52:17.757Z,17.80
2022-11-30T22:57:21.236Z,15.85
2022-11-30T23:02:23.541Z,20.98
2022-11-30T23:07:31.740Z,14.60
2022-11-30T23:12:57.782Z,11.25
2022-11-30T23:17:56.644Z,9.60
2022-11-30T23:22:58.957Z,8.30
2022-11-30T23:28:01.129Z,7.63
2022-11-30T23:33:03.382Z,8.15
2022-11-30T23:38:05.609Z,8.20
2022-11-30T23:43:07.830Z,8.07
2022-11-30T23:48:10.457Z,9.00
2022-11-30T23:53:12.645Z,8.75
2022-11-30T23:58:14.885Z,8.57
